Time;durP1;ratioP1;P1;durP2;ratioP2;P2;SDS_P1;SDS_P2;PMS_P1;PMS_P2;Temp;Humidity;BMP_temperature;BMP_pressure;BME280_temperature;BME280_humidity;BME280_pressure;Samples;Min_cycle;Max_cycle;Signal;HPM_P1;HPM_P2
2023/08/28 00:01:58;;;;;;;5.95;4.13;;;15.60;99.90;;;;;;5082624;28;20579;-70
2023/08/28 00:04:24;;;;;;;7.60;3.92;;;15.60;99.90;;;;;;5091048;28;20096;-70
2023/08/28 00:06:51;;;;;;;5.68;4.30;;;15.60;99.90;;;;;;5088660;28;20016;-71
2023/08/28 00:09:17;;;;;;;8.88;4.43;;;15.60;99.90;;;;;;5084221;28;20032;-71
2023/08/28 00:11:43;;;;;;;6.90;4.05;;;15.60;99.90;;;;;;5082527;28;20028;-70
2023/08/28 00:14:08;;;;;;;6.53;4.30;;;15.60;99.90;;;;;;5092170;28;20305;-70
2023/08/28 00:16:35;;;;;;;8.82;4.60;;;15.50;99.90;;;;;;5075902;28;20090;-71
2023/08/28 00:19:01;;;;;;;6.65;3.85;;;15.50;99.90;;;;;;5096289;28;20074;-70
2023/08/28 00:21:26;;;;;;;5.47;3.90;;;15.50;99.90;;;;;;5088467;28;20024;-71
2023/08/28 00:23:52;;;;;;;8.70;4.20;;;15.50;99.90;;;;;;5078523;28;20024;-71
2023/08/28 00:26:18;;;;;;;4.60;3.95;;;15.50;99.90;;;;;;5078750;28;20027;-70
2023/08/28 00:28:43;;;;;;;5.80;4.18;;;15.50;99.90;;;;;;5090502;28;20359;-70
2023/08/28 00:31:09;;;;;;;5.55;3.88;;;15.40;99.90;;;;;;5090780;28;20020;-70
2023/08/28 00:33:35;;;;;;;9.98;3.67;;;15.40;99.90;;;;;;5074883;28;20025;-71
2023/08/28 00:36:00;;;;;;;7.18;3.53;;;15.40;99.90;;;;;;5089711;28;20028;-70
2023/08/28 00:38:26;;;;;;;5.82;3.35;;;15.30;99.90;;;;;;5090544;28;20055;-70
2023/08/28 00:40:52;;;;;;;6.53;3.70;;;15.30;99.90;;;;;;5086940;28;20083;-70
2023/08/28 00:43:17;;;;;;;4.85;3.08;;;15.30;99.90;;;;;;5090981;28;20012;-71
2023/08/28 00:45:43;;;;;;;8.55;3.55;;;15.30;99.90;;;;;;5085995;28;20447;-70
2023/08/28 00:48:15;;;;;;;7.47;3.53;;;15.30;99.90;;;;;;5082071;28;20024;-70
2023/08/28 00:50:41;;;;;;;5.28;3.22;;;15.20;99.90;;;;;;5088755;28;20086;-70
2023/08/28 00:53:07;;;;;;;7.57;3.63;;;15.20;99.90;;;;;;5089963;28;20400;-70
2023/08/28 00:55:35;;;;;;;4.40;3.10;;;15.20;99.90;;;;;;5083418;28;20031;-71
2023/08/28 00:58:04;;;;;;;4.50;3.42;;;15.20;99.90;;;;;;5082726;28;20093;-71
2023/08/28 01:00:30;;;;;;;8.68;3.58;;;15.20;99.90;;;;;;5086786;28;20103;-71
2023/08/28 01:02:56;;;;;;;4.93;3.25;;;15.20;99.90;;;;;;5081684;28;20107;-71
2023/08/28 01:05:34;;;;;;;6.70;3.83;;;15.10;99.90;;;;;;5089655;28;20059;-71
2023/08/28 01:08:18;;;;;;;7.65;3.22;;;15.10;99.90;;;;;;5089785;28;20028;-70
2023/08/28 01:10:54;;;;;;;6.57;2.90;;;15.10;99.90;;;;;;5082466;28;20056;-71
2023/08/28 01:13:31;;;;;;;5.57;3.15;;;15.10;99.90;;;;;;5076184;28;20028;-70
2023/08/28 01:15:59;;;;;;;5.78;3.10;;;15.00;99.90;;;;;;5084559;28;20032;-70
2023/08/28 01:18:26;;;;;;;8.63;3.80;;;15.00;99.90;;;;;;5078363;28;20052;-71
2023/08/28 01:20:53;;;;;;;4.25;3.50;;;15.00;99.90;;;;;;5090238;28;20024;-70
2023/08/28 01:23:46;;;;;;;9.15;3.50;;;15.00;99.90;;;;;;5075839;28;20028;-71
2023/08/28 01:26:12;;;;;;;8.00;3.72;;;15.00;99.90;;;;;;5078358;28;20495;-71
2023/08/28 01:28:38;;;;;;;5.70;3.13;;;14.90;99.90;;;;;;5080359;28;20570;-71
2023/08/28 01:31:06;;;;;;;4.97;3.22;;;14.90;99.90;;;;;;5084583;28;20028;-70
2023/08/28 01:33:34;;;;;;;5.93;3.33;;;14.90;99.90;;;;;;5081705;28;20025;-71
2023/08/28 01:36:31;;;;;;;5.22;3.30;;;14.90;99.90;;;;;;5089018;28;20039;-70
2023/08/28 01:39:07;;;;;;;7.18;4.00;;;14.90;99.90;;;;;;5093341;28;20020;-71
2023/08/28 01:41:33;;;;;;;5.25;3.40;;;14.80;99.90;;;;;;5093069;28;20490;-71
2023/08/28 01:44:01;;;;;;;6.03;3.70;;;14.80;99.90;;;;;;5087084;28;20115;-70
2023/08/28 01:46:31;;;;;;;5.35;3.40;;;14.80;99.90;;;;;;5089293;28;20071;-70
2023/08/28 01:48:57;;;;;;;3.55;3.22;;;14.70;99.90;;;;;;5091329;28;20033;-71
2023/08/28 01:51:23;;;;;;;5.38;3.28;;;14.70;99.90;;;;;;5093787;28;20019;-70
2023/08/28 01:53:50;;;;;;;4.78;3.65;;;14.70;99.90;;;;;;5090733;28;20024;-71
2023/08/28 01:56:18;;;;;;;7.97;3.20;;;14.70;99.90;;;;;;5092378;28;20035;-70
2023/08/28 01:58:52;;;;;;;6.35;3.58;;;14.70;99.90;;;;;;5084619;28;20131;-71
2023/08/28 02:01:18;;;;;;;7.75;4.00;;;14.60;99.90;;;;;;5091693;28;20031;-70
2023/08/28 02:03:44;;;;;;;6.38;3.70;;;14.60;99.90;;;;;;5085695;28;20339;-70
2023/08/28 02:06:09;;;;;;;4.78;3.38;;;14.60;99.90;;;;;;5090814;28;20020;-70
2023/08/28 02:08:35;;;;;;;5.90;3.53;;;14.60;99.90;;;;;;5083038;28;20378;-71
2023/08/28 02:11:01;;;;;;;6.15;3.80;;;14.50;99.90;;;;;;5087498;28;20016;-70
2023/08/28 02:13:27;;;;;;;6.32;3.22;;;14.50;99.90;;;;;;5084233;28;20293;-70
2023/08/28 02:15:53;;;;;;;5.43;3.28;;;14.50;99.90;;;;;;5085144;28;20027;-71
2023/08/28 02:18:19;;;;;;;7.05;3.72;;;14.50;99.90;;;;;;5088383;28;20987;-71
2023/08/28 02:20:45;;;;;;;5.63;3.83;;;14.50;99.90;;;;;;5089959;28;20031;-71
2023/08/28 02:23:11;;;;;;;5.10;4.10;;;14.50;99.90;;;;;;5082462;28;20372;-70
2023/08/28 02:25:41;;;;;;;5.97;4.20;;;14.50;99.90;;;;;;5091714;28;20028;-71
2023/08/28 02:28:07;;;;;;;4.30;3.90;;;14.50;99.90;;;;;;5091747;28;20016;-70
2023/08/28 02:30:32;;;;;;;6.68;4.00;;;14.50;99.90;;;;;;5088935;28;20491;-71
2023/08/28 02:32:58;;;;;;;7.93;4.38;;;14.50;99.90;;;;;;5090228;28;20475;-70
2023/08/28 02:35:24;;;;;;;11.20;6.45;;;14.50;99.90;;;;;;5085013;28;20027;-70
2023/08/28 02:37:50;;;;;;;7.18;6.00;;;14.40;99.90;;;;;;5093191;28;20050;-70
2023/08/28 02:40:15;;;;;;;8.93;4.93;;;14.50;99.90;;;;;;5093067;28;20064;-70
2023/08/28 02:42:41;;;;;;;6.60;4.53;;;14.50;99.90;;;;;;5091878;28;20066;-70
2023/08/28 02:45:07;;;;;;;8.68;4.50;;;14.40;99.90;;;;;;5093168;28;20095;-70
2023/08/28 02:47:33;;;;;;;5.45;4.32;;;14.40;99.90;;;;;;5090470;28;20379;-70
2023/08/28 02:49:58;;;;;;;9.30;4.60;;;14.40;99.90;;;;;;5082400;28;20033;-70
2023/08/28 02:52:24;;;;;;;7.38;4.80;;;14.30;99.90;;;;;;5082995;28;20020;-70
2023/08/28 02:54:50;;;;;;;8.50;5.22;;;14.30;99.90;;;;;;5080881;28;20098;-70
2023/08/28 02:57:15;;;;;;;5.13;4.55;;;14.30;99.90;;;;;;5086677;28;20087;-70
2023/08/28 02:59:41;;;;;;;5.70;4.60;;;14.30;99.90;;;;;;5079230;28;20056;-70
2023/08/28 03:02:06;;;;;;;5.93;4.68;;;14.40;99.90;;;;;;5074065;28;20524;-70
2023/08/28 03:04:34;;;;;;;5.80;4.50;;;14.40;99.90;;;;;;5086008;28;20024;-70
2023/08/28 03:07:00;;;;;;;6.18;4.47;;;14.40;99.90;;;;;;5085164;28;20023;-70
2023/08/28 03:09:26;;;;;;;7.03;4.70;;;14.40;99.90;;;;;;5083093;28;20028;-70
2023/08/28 03:11:51;;;;;;;5.90;4.38;;;14.40;99.90;;;;;;5075217;28;20382;-70
2023/08/28 03:14:17;;;;;;;5.20;4.70;;;14.40;99.90;;;;;;5084985;28;20098;-70
2023/08/28 03:16:42;;;;;;;5.82;4.55;;;14.40;99.90;;;;;;5088169;28;20027;-70
2023/08/28 03:19:08;;;;;;;5.32;4.82;;;14.40;99.90;;;;;;5077066;28;20112;-70
2023/08/28 03:21:34;;;;;;;7.85;4.50;;;14.30;99.90;;;;;;5088515;28;20016;-70
2023/08/28 03:24:00;;;;;;;5.53;4.78;;;14.30;99.90;;;;;;5081248;28;20611;-70
2023/08/28 03:26:28;;;;;;;6.07;4.40;;;14.40;99.90;;;;;;5072526;28;20067;-70
2023/08/28 03:28:54;;;;;;;7.65;4.68;;;14.40;99.90;;;;;;5087587;28;20012;-70
2023/08/28 03:31:19;;;;;;;5.32;4.50;;;14.40;99.90;;;;;;5082011;28;20500;-70
2023/08/28 03:33:45;;;;;;;6.20;4.57;;;14.40;99.90;;;;;;5088630;28;20020;-70
2023/08/28 03:36:10;;;;;;;7.00;5.38;;;14.40;99.90;;;;;;5082325;28;20065;-70
2023/08/28 03:38:36;;;;;;;6.75;4.80;;;14.50;99.90;;;;;;5086608;28;20024;-70
2023/08/28 03:41:02;;;;;;;6.97;4.93;;;14.50;99.90;;;;;;5090541;28;20008;-70
2023/08/28 03:43:27;;;;;;;5.30;4.80;;;14.50;99.90;;;;;;5087959;28;20031;-70
2023/08/28 03:45:53;;;;;;;5.70;5.10;;;14.60;99.90;;;;;;5081291;28;20047;-70
2023/08/28 03:48:19;;;;;;;7.38;5.13;;;14.60;99.90;;;;;;5091376;28;20114;-70
2023/08/28 03:50:45;;;;;;;5.25;4.68;;;14.60;99.90;;;;;;5081608;28;20023;-70
2023/08/28 03:53:11;;;;;;;6.43;5.30;;;14.60;99.90;;;;;;5091505;28;20047;-70
2023/08/28 03:55:37;;;;;;;7.97;5.28;;;14.60;99.90;;;;;;5091326;28;20048;-70
2023/08/28 03:58:03;;;;;;;7.25;5.00;;;14.60;99.90;;;;;;5081633;28;20037;-70
2023/08/28 04:00:31;;;;;;;6.65;4.63;;;14.60;99.90;;;;;;5079614;28;20040;-70
2023/08/28 04:02:57;;;;;;;6.15;4.95;;;14.60;99.90;;;;;;5089028;28;20039;-71
2023/08/28 04:05:22;;;;;;;5.88;5.07;;;14.50;99.90;;;;;;5091499;28;20016;-71
2023/08/28 04:07:49;;;;;;;6.30;4.60;;;14.60;99.90;;;;;;5091244;28;20478;-70
2023/08/28 04:10:15;;;;;;;5.20;4.70;;;14.50;99.90;;;;;;5091308;28;20024;-70
2023/08/28 04:12:41;;;;;;;6.90;4.18;;;14.50;99.90;;;;;;5081618;28;20081;-70
2023/08/28 04:15:10;;;;;;;9.50;4.15;;;14.50;99.90;;;;;;5081655;28;20052;-70
2023/08/28 04:17:36;;;;;;;7.22;4.30;;;14.60;99.90;;;;;;5080154;28;20401;-70
2023/08/28 04:20:13;;;;;;;6.80;4.22;;;14.60;99.90;;;;;;5083019;28;20036;-70
2023/08/28 04:22:45;;;;;;;5.15;4.40;;;14.60;99.90;;;;;;5089762;28;20051;-70
2023/08/28 04:25:11;;;;;;;5.97;4.13;;;14.60;99.90;;;;;;5090996;28;20127;-70
2023/08/28 04:27:38;;;;;;;7.07;4.18;;;14.60;99.90;;;;;;5077331;28;20479;-70
2023/08/28 04:30:06;;;;;;;9.77;4.40;;;14.60;99.90;;;;;;5077401;28;20056;-70
2023/08/28 04:32:31;;;;;;;4.15;3.63;;;14.60;99.90;;;;;;5089874;28;20016;-70
2023/08/28 04:34:57;;;;;;;4.30;3.80;;;14.60;99.90;;;;;;5090136;28;20087;-70
2023/08/28 04:37:24;;;;;;;7.47;3.78;;;14.60;99.90;;;;;;5081444;28;20020;-70
2023/08/28 04:39:50;;;;;;;5.30;3.90;;;14.60;99.90;;;;;;5081319;28;20032;-70
2023/08/28 04:42:16;;;;;;;5.55;3.80;;;14.60;99.90;;;;;;5076394;28;20402;-71
2023/08/28 04:44:41;;;;;;;5.85;3.90;;;14.60;99.90;;;;;;5082661;28;20020;-70
2023/08/28 04:47:07;;;;;;;4.80;4.03;;;14.60;99.90;;;;;;5086244;28;20074;-70
2023/08/28 04:49:33;;;;;;;6.05;4.00;;;14.60;99.90;;;;;;5084849;28;20035;-70
2023/08/28 04:51:58;;;;;;;5.88;4.03;;;14.60;99.90;;;;;;5078226;28;20104;-70
2023/08/28 04:54:24;;;;;;;5.82;4.10;;;14.60;99.90;;;;;;5080684;28;20048;-70
2023/08/28 04:56:50;;;;;;;6.82;4.00;;;14.60;99.90;;;;;;5083905;28;20442;-70
2023/08/28 04:59:15;;;;;;;9.73;3.88;;;14.60;99.90;;;;;;5070825;28;20029;-70
2023/08/28 05:01:41;;;;;;;8.43;4.00;;;14.60;99.90;;;;;;5085009;28;20028;-70
2023/08/28 05:04:07;;;;;;;6.00;3.38;;;14.60;99.90;;;;;;5089096;28;20058;-70
2023/08/28 05:06:33;;;;;;;4.85;3.75;;;14.70;99.90;;;;;;5087922;28;20060;-70
2023/08/28 05:08:59;;;;;;;6.25;3.60;;;14.70;99.90;;;;;;5087816;28;20451;-71
2023/08/28 05:11:24;;;;;;;5.05;3.13;;;14.70;99.90;;;;;;5091109;28;20024;-70
2023/08/28 05:13:55;;;;;;;5.20;3.55;;;14.80;99.90;;;;;;5090299;28;20375;-70
2023/08/28 05:16:20;;;;;;;6.53;3.70;;;14.80;99.90;;;;;;5089749;28;20458;-70
2023/08/28 05:18:46;;;;;;;5.78;3.42;;;14.80;99.90;;;;;;5082588;28;20028;-71
2023/08/28 05:21:11;;;;;;;5.15;3.70;;;14.80;99.90;;;;;;5085139;28;20092;-71
2023/08/28 05:23:37;;;;;;;10.75;3.70;;;14.80;99.90;;;;;;5087573;28;20028;-71
2023/08/28 05:26:03;;;;;;;6.72;3.90;;;14.80;99.90;;;;;;5081015;28;20095;-70
2023/08/28 05:28:31;;;;;;;10.18;4.55;;;14.90;99.90;;;;;;5073400;28;20035;-71
2023/08/28 05:30:57;;;;;;;10.98;4.63;;;14.90;99.90;;;;;;5073153;28;20029;-71
2023/08/28 05:33:23;;;;;;;6.68;3.90;;;14.90;99.90;;;;;;5086112;28;20024;-71
2023/08/28 05:35:50;;;;;;;7.00;3.95;;;14.90;99.90;;;;;;5080784;28;20462;-71
2023/08/28 05:38:15;;;;;;;7.38;3.95;;;14.90;99.90;;;;;;5089500;28;20480;-71
2023/08/28 05:40:41;;;;;;;4.93;3.28;;;14.90;99.90;;;;;;5088539;28;20035;-71
2023/08/28 05:43:07;;;;;;;7.68;3.30;;;15.00;99.90;;;;;;5087177;28;20024;-71
2023/08/28 05:45:32;;;;;;;5.03;2.75;;;15.00;99.90;;;;;;5087157;28;20084;-71
2023/08/28 05:47:58;;;;;;;6.70;3.15;;;15.00;99.90;;;;;;5082569;28;20226;-71
2023/08/28 05:50:23;;;;;;;5.93;3.17;;;15.00;99.90;;;;;;5088049;28;20027;-71
2023/08/28 05:52:49;;;;;;;4.97;3.13;;;15.10;99.90;;;;;;5083111;28;20043;-71
2023/08/28 05:55:15;;;;;;;4.03;2.80;;;15.10;99.90;;;;;;5080432;28;20031;-71
2023/08/28 05:57:41;;;;;;;6.50;3.00;;;15.20;99.90;;;;;;5081735;28;20056;-71
2023/08/28 06:00:12;;;;;;;7.90;3.50;;;15.20;99.90;;;;;;5069864;28;20024;-71
2023/08/28 06:02:39;;;;;;;6.60;3.53;;;15.30;99.90;;;;;;5076934;28;20064;-71
2023/08/28 06:05:06;;;;;;;7.03;3.10;;;15.30;99.90;;;;;;5080500;28;20417;-71
2023/08/28 06:07:32;;;;;;;4.97;3.03;;;15.40;99.90;;;;;;5085007;28;20246;-71
2023/08/28 06:09:57;;;;;;;8.75;3.22;;;15.40;99.90;;;;;;5089575;28;20487;-71
2023/08/28 06:12:24;;;;;;;4.80;3.15;;;15.40;99.90;;;;;;5089851;28;20020;-71
2023/08/28 06:14:50;;;;;;;7.00;3.17;;;15.50;99.90;;;;;;5086009;28;20506;-71
2023/08/28 06:17:16;;;;;;;4.57;3.10;;;15.50;99.90;;;;;;5088489;28;20016;-71
2023/08/28 06:19:41;;;;;;;4.55;3.33;;;15.60;99.90;;;;;;5092397;28;20031;-71
2023/08/28 06:22:07;;;;;;;4.65;3.03;;;15.60;99.90;;;;;;5087454;28;20050;-71
2023/08/28 06:24:33;;;;;;;5.78;3.15;;;15.70;99.90;;;;;;5092966;28;20032;-71
2023/08/28 06:26:59;;;;;;;4.47;3.22;;;15.80;99.90;;;;;;5093145;28;20035;-71
2023/08/28 06:29:25;;;;;;;5.18;3.30;;;15.80;99.90;;;;;;5084589;28;20095;-71
2023/08/28 06:31:51;;;;;;;4.57;3.08;;;15.90;99.90;;;;;;5082887;28;20051;-71
2023/08/28 06:34:17;;;;;;;6.72;3.35;;;16.00;99.90;;;;;;5086245;28;20562;-71
2023/08/28 06:36:43;;;;;;;7.32;4.05;;;16.00;99.90;;;;;;5086476;28;20329;-71
2023/08/28 06:39:09;;;;;;;7.53;4.00;;;16.10;99.90;;;;;;5085870;28;20051;-71
2023/08/28 06:41:35;;;;;;;7.20;4.70;;;16.10;99.90;;;;;;5087522;28;20052;-71
2023/08/28 06:44:00;;;;;;;4.57;3.80;;;16.10;99.90;;;;;;5079041;28;20020;-71
2023/08/28 06:46:26;;;;;;;5.25;4.07;;;16.20;99.90;;;;;;5080753;28;20450;-71
2023/08/28 06:48:53;;;;;;;6.22;4.65;;;16.20;99.90;;;;;;5091777;28;20085;-71
2023/08/28 06:51:19;;;;;;;10.63;4.45;;;16.20;99.90;;;;;;5085076;28;20024;-71
2023/08/28 06:53:45;;;;;;;6.07;4.40;;;16.30;99.90;;;;;;5087263;28;20024;-70
2023/08/28 06:56:11;;;;;;;8.10;4.90;;;16.40;99.90;;;;;;5082160;28;20013;-71
2023/08/28 06:58:37;;;;;;;6.40;4.40;;;16.40;99.90;;;;;;5084998;28;20059;-71
2023/08/28 07:01:02;;;;;;;6.85;4.10;;;16.40;99.90;;;;;;5092154;28;20028;-71
2023/08/28 07:03:28;;;;;;;6.22;4.20;;;16.50;99.90;;;;;;5080529;28;20072;-71
2023/08/28 07:05:54;;;;;;;5.85;3.78;;;16.60;99.90;;;;;;5092173;28;20432;-71
2023/08/28 07:08:19;;;;;;;7.32;4.53;;;16.60;99.90;;;;;;5092497;28;20531;-71
2023/08/28 07:10:45;;;;;;;8.40;4.30;;;16.70;99.90;;;;;;5076852;28;20032;-71
2023/08/28 07:13:11;;;;;;;8.98;4.95;;;16.70;99.90;;;;;;5083774;28;20017;-71
2023/08/28 07:15:36;;;;;;;10.98;5.38;;;16.90;99.90;;;;;;5091134;28;20020;-71
2023/08/28 07:18:03;;;;;;;11.27;4.53;;;16.90;99.90;;;;;;5079774;28;20020;-71
2023/08/28 07:20:28;;;;;;;8.82;4.85;;;17.00;99.90;;;;;;5076430;28;20063;-71
2023/08/28 07:22:54;;;;;;;8.73;4.85;;;17.10;99.90;;;;;;5072997;28;20476;-71
2023/08/28 07:25:22;;;;;;;7.95;4.82;;;17.10;99.90;;;;;;5085671;28;20024;-71
2023/08/28 07:27:48;;;;;;;5.68;4.43;;;17.20;99.90;;;;;;5072715;28;20028;-71
2023/08/28 07:30:14;;;;;;;5.18;4.10;;;17.20;99.90;;;;;;5085144;28;20028;-71
2023/08/28 07:32:39;;;;;;;5.18;3.83;;;17.30;99.90;;;;;;5091801;28;20024;-71
2023/08/28 07:35:05;;;;;;;5.80;3.65;;;17.30;99.90;;;;;;5081881;28;20016;-70
2023/08/28 07:37:34;;;;;;;5.63;3.70;;;17.30;99.90;;;;;;5086631;28;20028;-70
2023/08/28 07:39:59;;;;;;;6.53;4.22;;;17.30;99.90;;;;;;5082684;28;20035;-70
2023/08/28 07:42:25;;;;;;;4.63;3.58;;;17.30;99.90;;;;;;5091705;28;20020;-70
2023/08/28 07:44:51;;;;;;;6.45;3.90;;;17.30;99.90;;;;;;5091498;28;20491;-71
2023/08/28 07:47:18;;;;;;;5.85;4.00;;;17.30;99.90;;;;;;5091935;28;20030;-70
2023/08/28 07:49:43;;;;;;;5.03;4.03;;;17.40;99.90;;;;;;5091769;28;20047;-70
2023/08/28 07:52:09;;;;;;;5.57;3.88;;;17.40;99.90;;;;;;5088822;28;20101;-70
2023/08/28 07:54:36;;;;;;;6.82;4.00;;;17.40;99.90;;;;;;5089094;28;20032;-70
2023/08/28 07:57:03;;;;;;;7.13;3.70;;;17.50;99.90;;;;;;5085135;28;20075;-70
2023/08/28 07:59:29;;;;;;;7.00;4.30;;;17.50;99.90;;;;;;5071718;28;20027;-70
2023/08/28 08:01:55;;;;;;;4.13;3.20;;;17.60;99.90;;;;;;5071077;28;20471;-70
2023/08/28 08:04:21;;;;;;;5.10;2.92;;;17.70;99.90;;;;;;5085728;28;20076;-70
2023/08/28 08:06:47;;;;;;;4.32;2.95;;;17.90;99.90;;;;;;5076792;28;20020;-70
2023/08/28 08:09:13;;;;;;;3.53;2.78;;;18.10;99.90;;;;;;5083905;28;20020;-70
2023/08/28 08:11:38;;;;;;;4.88;2.35;;;18.20;99.90;;;;;;5091591;28;20028;-70
2023/08/28 08:14:04;;;;;;;4.32;2.00;;;18.40;99.90;;;;;;5081317;28;20073;-71
2023/08/28 08:16:30;;;;;;;3.97;1.45;;;18.60;99.90;;;;;;5091277;28;20024;-71
2023/08/28 08:18:55;;;;;;;2.70;1.20;;;18.70;99.90;;;;;;5090478;28;20052;-71
2023/08/28 08:21:21;;;;;;;2.42;1.20;;;18.90;99.90;;;;;;5090849;28;20019;-70
2023/08/28 08:23:48;;;;;;;3.00;1.20;;;19.00;99.90;;;;;;5077514;28;20028;-71
2023/08/28 08:26:14;;;;;;;2.45;1.33;;;19.20;99.90;;;;;;5078682;28;20021;-71
2023/08/28 08:28:41;;;;;;;2.08;1.17;;;19.30;99.90;;;;;;5085732;28;20036;-71
2023/08/28 08:31:06;;;;;;;2.47;1.40;;;19.50;99.90;;;;;;5087728;28;20017;-71
2023/08/28 08:33:32;;;;;;;3.35;1.40;;;19.60;99.90;;;;;;5082220;28;20036;-71
2023/08/28 08:35:57;;;;;;;2.08;1.27;;;19.70;99.90;;;;;;5085719;28;20087;-71
2023/08/28 08:38:23;;;;;;;2.83;1.50;;;19.60;99.90;;;;;;5084452;28;20040;-71
2023/08/28 08:40:53;;;;;;;2.28;1.13;;;19.70;99.90;;;;;;5083389;28;20470;-71
2023/08/28 08:43:19;;;;;;;2.35;0.98;;;19.80;99.90;;;;;;5089887;28;20020;-71
2023/08/28 08:45:47;;;;;;;2.20;1.02;;;19.80;99.90;;;;;;5090456;28;20069;-71
2023/08/28 08:48:18;;;;;;;1.77;0.90;;;19.80;99.90;;;;;;5090237;28;20142;-71
2023/08/28 08:50:47;;;;;;;1.42;0.82;;;19.90;99.90;;;;;;5075695;28;20048;-70
2023/08/28 08:53:25;;;;;;;3.03;1.00;;;19.90;99.90;;;;;;5090285;28;20020;-71
2023/08/28 08:55:54;;;;;;;5.65;0.82;;;20.00;99.90;;;;;;5086088;28;20481;-71
2023/08/28 08:58:21;;;;;;;3.03;0.93;;;20.10;99.90;;;;;;5086955;28;20039;-70
2023/08/28 09:00:49;;;;;;;3.00;1.00;;;20.20;99.90;;;;;;5082664;28;20044;-70
2023/08/28 09:03:17;;;;;;;4.45;0.85;;;20.30;99.90;;;;;;5085464;28;20081;-70
2023/08/28 09:05:44;;;;;;;2.00;0.75;;;20.50;99.90;;;;;;5090742;28;20022;-70
2023/08/28 09:08:10;;;;;;;3.22;1.17;;;20.60;99.90;;;;;;5089757;28;20016;-71
2023/08/28 09:10:36;;;;;;;2.50;0.90;;;20.60;99.90;;;;;;5083215;28;20293;-70
2023/08/28 09:13:04;;;;;;;2.67;0.90;;;20.60;99.90;;;;;;5083704;28;20020;-70
2023/08/28 09:15:29;;;;;;;2.78;1.02;;;20.70;99.90;;;;;;5084737;28;20364;-71
2023/08/28 09:17:55;;;;;;;3.22;0.80;;;20.90;99.90;;;;;;5076496;28;20085;-71
2023/08/28 09:20:21;;;;;;;3.05;0.73;;;21.00;99.90;;;;;;5089658;28;20038;-71
2023/08/28 09:22:53;;;;;;;2.50;0.80;;;21.10;99.90;;;;;;5089408;28;20028;-71
2023/08/28 09:25:21;;;;;;;4.53;0.80;;;21.40;99.90;;;;;;5087617;28;20040;-71
2023/08/28 09:27:51;;;;;;;1.95;0.70;;;21.60;99.90;;;;;;5070726;28;20047;-70
2023/08/28 09:30:27;;;;;;;1.88;0.80;;;21.80;99.90;;;;;;5085540;28;20027;-71
2023/08/28 09:32:52;;;;;;;3.20;0.70;;;22.00;99.90;;;;;;5090174;28;20028;-71
2023/08/28 09:35:21;;;;;;;3.25;0.63;;;22.20;99.90;;;;;;5088157;28;20247;-71
2023/08/28 09:38:00;;;;;;;1.42;0.65;;;22.20;99.90;;;;;;5081551;28;20108;-70
2023/08/28 09:40:29;;;;;;;1.60;0.98;;;22.30;99.90;;;;;;5086979;28;20055;-71
2023/08/28 09:42:55;;;;;;;2.55;0.80;;;22.30;99.90;;;;;;5090053;28;20386;-71
2023/08/28 09:45:20;;;;;;;2.33;0.90;;;22.30;99.90;;;;;;5089847;28;20012;-71
2023/08/28 09:47:52;;;;;;;3.58;0.95;;;22.10;99.90;;;;;;5089504;28;20020;-71
2023/08/28 09:50:27;;;;;;;1.83;0.80;;;21.90;99.90;;;;;;5090373;28;20028;-71
2023/08/28 09:52:52;;;;;;;;;;;21.60;99.90;;;;;;5090516;28;20034;-71
2023/08/28 09:55:19;;;;;;;3.78;0.90;;;21.30;99.90;;;;;;5092360;28;20011;-71
2023/08/28 09:57:44;;;;;;;2.63;0.80;;;21.10;99.90;;;;;;5087021;28;20076;-71
2023/08/28 10:00:12;;;;;;;3.58;0.82;;;20.80;99.90;;;;;;5079735;28;20428;-71
2023/08/28 10:02:41;;;;;;;2.63;0.90;;;20.50;99.90;;;;;;5082244;28;20098;-71
2023/08/28 10:05:08;;;;;;;1.42;0.70;;;20.40;99.90;;;;;;5080718;28;20107;-71
2023/08/28 10:07:37;;;;;;;2.72;0.80;;;20.20;99.90;;;;;;5093438;28;20476;-71
2023/08/28 10:10:05;;;;;;;2.88;1.05;;;20.10;99.90;;;;;;5093305;28;20082;-71
2023/08/28 10:12:33;;;;;;;2.00;0.80;;;20.10;99.90;;;;;;5093440;28;20399;-71
2023/08/28 10:15:03;;;;;;;3.53;0.73;;;20.00;99.90;;;;;;5091860;28;20092;-71
2023/08/28 10:17:32;;;;;;;3.20;0.88;;;20.00;99.90;;;;;;5088935;28;20020;-71
2023/08/28 10:20:00;;;;;;;1.73;0.82;;;20.10;99.90;;;;;;5083653;28;20025;-70
2023/08/28 10:22:28;;;;;;;1.13;0.80;;;20.10;99.90;;;;;;5093145;28;20463;-70
2023/08/28 10:24:58;;;;;;;3.63;0.90;;;20.30;99.90;;;;;;5093417;28;20024;-70
2023/08/28 10:27:25;;;;;;;2.55;0.70;;;20.60;99.90;;;;;;5080476;28;20023;-70
2023/08/28 10:29:53;;;;;;;2.67;1.30;;;20.90;99.90;;;;;;5093009;28;20052;-70
2023/08/28 10:32:20;;;;;;;4.72;1.10;;;21.00;99.90;;;;;;5093020;28;20028;-70
2023/08/28 10:34:46;;;;;;;3.00;1.00;;;21.00;99.90;;;;;;5093232;28;20097;-71
2023/08/28 10:37:13;;;;;;;1.00;0.60;;;20.90;99.90;;;;;;5091562;28;20490;-70
2023/08/28 10:39:41;;;;;;;2.58;1.00;;;20.80;99.90;;;;;;5084405;28;20032;-70
2023/08/28 10:42:09;;;;;;;2.42;1.20;;;20.70;99.90;;;;;;5085927;28;20028;-71
2023/08/28 10:44:36;;;;;;;2.10;0.95;;;20.70;99.90;;;;;;5085011;28;20119;-71
2023/08/28 10:47:02;;;;;;;2.97;0.80;;;20.60;99.90;;;;;;5092695;28;20021;-71
2023/08/28 10:49:28;;;;;;;3.60;1.10;;;20.50;99.90;;;;;;5086194;28;20430;-70
2023/08/28 10:52:03;;;;;;;3.03;0.80;;;20.50;99.90;;;;;;5074161;28;20021;-70
2023/08/28 10:54:40;;;;;;;4.43;0.90;;;20.60;99.90;;;;;;5075210;28;20020;-70
2023/08/28 10:57:10;;;;;;;4.07;0.80;;;20.80;99.90;;;;;;5068474;28;20127;-70
2023/08/28 10:59:45;;;;;;;4.00;0.85;;;20.90;99.90;;;;;;5090937;28;20039;-71
2023/08/28 11:02:11;;;;;;;2.22;0.85;;;21.10;99.90;;;;;;5084360;28;20111;-70
2023/08/28 11:04:39;;;;;;;1.20;0.60;;;21.30;99.90;;;;;;5088664;28;20095;-70
2023/08/28 11:07:09;;;;;;;2.58;0.90;;;21.20;99.90;;;;;;5087032;28;20020;-70
2023/08/28 11:09:36;;;;;;;2.22;0.70;;;21.10;99.90;;;;;;5080168;28;20073;-70
2023/08/28 11:12:02;;;;;;;1.40;0.75;;;20.90;99.90;;;;;;5091641;28;20016;-70
2023/08/28 11:14:38;;;;;;;2.55;0.80;;;20.80;99.90;;;;;;5091680;28;20031;-70
2023/08/28 11:17:15;;;;;;;2.45;0.95;;;20.80;99.90;;;;;;5092495;28;20099;-70
2023/08/28 11:19:59;;;;;;;1.42;0.80;;;20.80;99.90;;;;;;5084155;28;20062;-70
2023/08/28 11:22:45;;;;;;;2.45;0.90;;;20.70;99.90;;;;;;5078323;28;20024;-70
2023/08/28 11:25:35;;;;;;;3.60;0.82;;;20.60;99.90;;;;;;5087091;28;20027;-70
2023/08/28 11:28:00;;;;;;;0.82;0.60;;;20.60;99.90;;;;;;5081245;28;20032;-70
2023/08/28 11:30:26;;;;;;;2.83;1.00;;;20.50;99.90;;;;;;5091110;28;20083;-70
2023/08/28 11:32:54;;;;;;;1.95;0.70;;;20.40;99.90;;;;;;5092133;28;20016;-70
2023/08/28 11:35:23;;;;;;;1.45;0.60;;;20.40;99.90;;;;;;5091253;28;20016;-70
2023/08/28 11:37:52;;;;;;;2.20;0.70;;;20.60;99.90;;;;;;5091995;28;20026;-70
2023/08/28 11:40:22;;;;;;;2.03;0.75;;;20.80;99.90;;;;;;5091531;28;20028;-70
2023/08/28 11:42:49;;;;;;;1.85;0.70;;;20.90;99.90;;;;;;5084131;28;20032;-70
2023/08/28 11:45:22;;;;;;;1.40;0.68;;;21.00;99.90;;;;;;5085856;28;20376;-70
2023/08/28 11:47:48;;;;;;;1.50;0.73;;;21.10;99.90;;;;;;5079460;28;20056;-70
2023/08/28 11:50:13;;;;;;;1.70;0.60;;;21.30;99.90;;;;;;5083216;28;20059;-70
2023/08/28 11:52:39;;;;;;;1.60;0.75;;;21.40;99.90;;;;;;5091760;28;20095;-70
2023/08/28 11:55:06;;;;;;;1.95;0.80;;;21.40;99.90;;;;;;5091870;28;20024;-70
2023/08/28 11:57:33;;;;;;;2.35;0.70;;;21.60;99.90;;;;;;5086149;28;20048;-70
2023/08/28 12:00:04;;;;;;;1.50;0.70;;;21.70;99.90;;;;;;5071761;28;20491;-71
2023/08/28 12:02:29;;;;;;;2.05;0.77;;;21.80;99.90;;;;;;5083716;28;20021;-70
2023/08/28 12:04:55;;;;;;;0.95;0.80;;;21.80;99.90;;;;;;5091100;28;20068;-70
2023/08/28 12:07:26;;;;;;;0.63;0.55;;;21.70;99.90;;;;;;5089934;28;20027;-70
2023/08/28 12:09:54;;;;;;;1.65;0.60;;;21.70;99.90;;;;;;5082040;28;20024;-70
2023/08/28 12:12:20;;;;;;;0.85;0.50;;;21.80;99.90;;;;;;5083900;28;20013;-70
2023/08/28 12:14:47;;;;;;;0.88;0.73;;;21.80;99.90;;;;;;5084428;28;20043;-70
2023/08/28 12:17:26;;;;;;;1.00;0.63;;;21.80;99.90;;;;;;5088334;28;20020;-70
2023/08/28 12:19:52;;;;;;;1.98;0.90;;;21.90;99.90;;;;;;5084665;28;20024;-70
2023/08/28 12:22:21;;;;;;;1.30;0.73;;;21.90;99.90;;;;;;5090926;28;20153;-70
2023/08/28 12:24:49;;;;;;;1.65;0.70;;;21.80;99.90;;;;;;5080514;28;20149;-70
2023/08/28 12:27:17;;;;;;;1.92;0.77;;;21.80;99.90;;;;;;5075648;28;20020;-70
2023/08/28 12:29:43;;;;;;;2.75;0.90;;;21.80;99.90;;;;;;5090991;28;20031;-70
2023/08/28 12:32:19;;;;;;;2.50;0.90;;;21.90;99.90;;;;;;5089999;28;20145;-70
2023/08/28 12:34:46;;;;;;;3.15;0.80;;;22.00;99.90;;;;;;5090873;28;20031;-70
2023/08/28 12:37:13;;;;;;;1.92;0.77;;;22.00;99.90;;;;;;5090197;28;20387;-71
2023/08/28 12:39:46;;;;;;;1.02;0.60;;;22.10;99.90;;;;;;5082260;28;20033;-70
2023/08/28 12:42:15;;;;;;;1.02;0.82;;;22.00;99.90;;;;;;5077307;28;20016;-70
2023/08/28 12:44:43;;;;;;;0.75;0.70;;;21.80;99.90;;;;;;5090553;28;20522;-71
2023/08/28 12:47:10;;;;;;;1.98;0.80;;;21.80;99.90;;;;;;5084643;28;20024;-71
2023/08/28 12:49:35;;;;;;;1.95;0.70;;;21.80;99.90;;;;;;5083707;28;20028;-70